createdAt,value
2019-04-14T00:00:12.037Z,0.00
2019-04-14T00:01:12.989Z,0.00
2019-04-14T00:02:11.995Z,0.00
2019-04-14T00:03:12.979Z,0.00
2019-04-14T00:04:11.960Z,0.00
2019-04-14T00:05:12.511Z,0.00
2019-04-14T00:06:11.987Z,0.00
2019-04-14T00:07:12.215Z,0.00
2019-04-14T00:08:11.885Z,0.00
2019-04-14T00:09:11.894Z,0.00
2019-04-14T00:10:11.933Z,0.00
2019-04-14T00:11:12.556Z,0.00
2019-04-14T00:12:12.140Z,0.00
2019-04-14T00:13:13.090Z,0.00
2019-04-14T00:14:11.864Z,0.00
2019-04-14T00:15:21.179Z,0.00
2019-04-14T00:16:14.182Z,0.00
2019-04-14T00:17:12.903Z,0.00
2019-04-14T00:18:11.880Z,0.00
2019-04-14T00:19:12.839Z,0.00
2019-04-14T00:20:12.053Z,0.00
2019-04-14T00:21:12.880Z,0.00
2019-04-14T00:22:11.769Z,0.00
2019-04-14T00:23:12.984Z,0.00
2019-04-14T00:24:11.773Z,0.00
2019-04-14T00:25:12.925Z,0.00
2019-04-14T00:26:11.692Z,0.00
2019-04-14T00:27:12.827Z,0.00
2019-04-14T00:28:11.743Z,0.00
2019-04-14T00:29:11.655Z,0.00
2019-04-14T00:30:11.887Z,0.00
2019-04-14T00:31:11.627Z,0.00
2019-04-14T00:32:11.743Z,0.00
2019-04-14T00:33:12.693Z,0.00
2019-04-14T00:34:11.608Z,0.00
2019-04-14T00:35:12.462Z,0.00
2019-04-14T00:36:11.591Z,0.00
2019-04-14T00:37:12.088Z,0.00
2019-04-14T00:38:11.550Z,0.00
2019-04-14T00:39:11.798Z,0.00
2019-04-14T00:40:12.799Z,0.00
2019-04-14T00:41:11.655Z,0.00
2019-04-14T00:42:12.594Z,0.00
2019-04-14T00:43:11.541Z,0.00
2019-04-14T00:44:12.441Z,0.00
2019-04-14T00:45:11.479Z,0.00
2019-04-14T00:46:12.484Z,0.00
2019-04-14T00:47:11.523Z,0.00
2019-04-14T00:48:15.770Z,0.00
2019-04-14T00:49:13.505Z,0.00
2019-04-14T00:50:12.453Z,0.00
2019-04-14T00:51:11.424Z,0.00
2019-04-14T00:52:12.497Z,0.00
2019-04-14T00:53:12.137Z,0.00
2019-04-14T00:54:11.382Z,0.00
2019-04-14T00:55:11.854Z,0.00
2019-04-14T00:56:11.374Z,0.00
2019-04-14T00:57:11.595Z,0.00
2019-04-14T00:58:11.334Z,0.00
2019-04-14T00:59:11.440Z,0.00
2019-04-14T01:00:12.691Z,0.00
2019-04-14T01:01:11.297Z,0.00
2019-04-14T01:02:12.219Z,0.00
2019-04-14T01:03:11.363Z,0.00
2019-04-14T01:04:12.214Z,0.00
2019-04-14T01:05:11.272Z,0.00
2019-04-14T01:06:12.227Z,0.00
2019-04-14T01:07:11.265Z,0.00
2019-04-14T01:08:11.992Z,0.00
2019-04-14T01:09:11.205Z,0.00
2019-04-14T01:10:11.197Z,0.00
2019-04-14T01:11:11.735Z,0.00
2019-04-14T01:12:11.231Z,0.00
2019-04-14T01:13:12.609Z,0.00
2019-04-14T01:14:11.165Z,0.00
2019-04-14T01:15:11.534Z,0.00
2019-04-14T01:16:15.534Z,0.00
2019-04-14T01:17:13.336Z,0.00
2019-04-14T01:18:12.443Z,0.00
2019-04-14T01:19:11.309Z,0.00
2019-04-14T01:20:12.394Z,0.00
2019-04-14T01:21:11.099Z,0.00
2019-04-14T01:22:11.988Z,0.00
2019-04-14T01:23:11.102Z,0.00
2019-04-14T01:24:12.054Z,0.00
2019-04-14T01:25:11.038Z,0.00
2019-04-14T01:26:11.778Z,0.00
2019-04-14T01:27:11.034Z,0.00
2019-04-14T01:28:11.333Z,0.00
2019-04-14T01:29:12.203Z,0.00
2019-04-14T01:30:11.242Z,0.00
2019-04-14T01:31:11.953Z,0.00
2019-04-14T01:32:11.224Z,0.00
2019-04-14T01:33:11.883Z,0.00
2019-04-14T01:34:10.939Z,0.00
2019-04-14T01:35:11.739Z,0.00
2019-04-14T01:36:10.911Z,0.00
2019-04-14T01:37:11.547Z,0.00
2019-04-14T01:38:10.904Z,0.00
2019-04-14T01:39:11.147Z,0.00
2019-04-14T01:40:11.986Z,0.00
2019-04-14T01:41:10.857Z,0.00
2019-04-14T01:42:11.650Z,0.00
2019-04-14T01:43:10.852Z,0.00
2019-04-14T01:44:11.239Z,0.00
2019-04-14T01:45:12.091Z,0.00
2019-04-14T01:46:17.763Z,0.00
2019-04-14T01:47:11.801Z,0.00
2019-04-14T01:48:10.815Z,0.00
2019-04-14T01:49:11.532Z,0.00
2019-04-14T01:50:10.757Z,0.00
2019-04-14T01:51:11.308Z,0.00
2019-04-14T01:52:10.735Z,0.00
2019-04-14T01:53:11.860Z,0.00
2019-04-14T01:54:10.801Z,0.00
2019-04-14T01:55:11.211Z,0.00
2019-04-14T01:56:10.708Z,0.00
2019-04-14T01:57:11.039Z,0.00
2019-04-14T01:58:10.659Z,0.00
2019-04-14T01:59:10.816Z,0.00
2019-04-14T02:00:10.660Z,0.00
2019-04-14T02:01:10.650Z,0.00
2019-04-14T02:02:11.814Z,0.00
2019-04-14T02:03:10.736Z,0.00
2019-04-14T02:04:11.653Z,0.00
2019-04-14T02:05:10.590Z,0.00
2019-04-14T02:06:11.414Z,0.00
2019-04-14T02:07:10.592Z,0.00
2019-04-14T02:08:11.194Z,0.00
2019-04-14T02:09:11.904Z,0.00
2019-04-14T02:10:10.734Z,0.00
2019-04-14T02:11:11.611Z,0.00
2019-04-14T02:12:10.609Z,0.00
2019-04-14T02:13:11.478Z,0.00
2019-04-14T02:14:10.519Z,0.00
2019-04-14T02:15:11.298Z,0.00
2019-04-14T02:16:18.860Z,0.00
2019-04-14T02:17:11.465Z,0.00
2019-04-14T02:18:10.457Z,0.00
2019-04-14T02:19:10.954Z,0.00
2019-04-14T02:20:10.438Z,0.00
2019-04-14T02:21:10.771Z,0.00
2019-04-14T02:22:11.586Z,0.00
2019-04-14T02:23:10.455Z,0.00
2019-04-14T02:24:11.354Z,0.00
2019-04-14T02:25:10.377Z,0.00
2019-04-14T02:26:11.221Z,0.00
2019-04-14T02:27:10.357Z,0.00
2019-04-14T02:28:11.228Z,0.00
2019-04-14T02:29:10.377Z,0.00
2019-04-14T02:30:15.212Z,0.00
2019-04-14T02:31:26.437Z,0.00
2019-04-14T02:33:40.903Z,0.00
2019-04-14T02:35:47.202Z,0.00
2019-04-14T02:36:41.712Z,0.00
2019-04-14T02:37:49.182Z,0.00
2019-04-14T02:38:50.264Z,0.00
2019-04-14T02:39:39.084Z,0.00
2019-04-14T02:41:02.763Z,0.00
2019-04-14T02:41:59.937Z,0.00
2019-04-14T02:43:38.071Z,0.00
2019-04-14T02:44:36.429Z,0.00
2019-04-14T02:48:47.675Z,0.00
2019-04-14T02:49:44.581Z,0.00
2019-04-14T02:50:30.530Z,0.00
2019-04-14T02:51:33.578Z,0.00
2019-04-14T02:52:35.766Z,0.00
2019-04-14T02:53:42.734Z,0.00
2019-04-14T02:54:45.680Z,0.00
2019-04-14T02:55:42.543Z,0.00
2019-04-14T02:56:43.372Z,0.00
2019-04-14T02:59:34.162Z,0.00
2019-04-14T03:01:48.695Z,0.00
2019-04-14T03:04:41.525Z,0.00
2019-04-14T03:05:49.575Z,0.00
2019-04-14T03:06:35.341Z,0.00
2019-04-14T03:08:48.553Z,0.00
2019-04-14T03:09:45.445Z,0.00
2019-04-14T03:11:37.845Z,0.00
2019-04-14T03:13:35.276Z,0.00
2019-04-14T03:14:39.873Z,0.00
2019-04-14T03:15:39.796Z,0.00
2019-04-14T03:16:44.774Z,0.00
2019-04-14T03:17:38.327Z,0.00
2019-04-14T03:19:44.497Z,0.00
2019-04-14T03:20:37.266Z,0.00
2019-04-14T03:21:34.379Z,0.00
2019-04-14T03:22:37.392Z,0.00
2019-04-14T03:24:32.832Z,0.00
2019-04-14T03:25:27.687Z,0.00
2019-04-14T03:26:33.998Z,0.00
2019-04-14T03:27:40.426Z,0.00
2019-04-14T03:29:35.835Z,0.00
2019-04-14T03:30:46.075Z,0.00
2019-04-14T03:33:13.617Z,0.00
2019-04-14T03:34:42.241Z,0.00
2019-04-14T03:37:45.294Z,0.00
2019-04-14T03:38:40.248Z,0.00
2019-04-14T03:39:44.348Z,0.00
2019-04-14T03:42:44.823Z,0.00
2019-04-14T03:43:39.447Z,0.00
2019-04-14T03:44:41.491Z,0.00
2019-04-14T03:45:43.268Z,0.00
2019-04-14T03:47:34.766Z,0.00
2019-04-14T03:49:37.275Z,0.00
2019-04-14T03:50:41.912Z,0.00
2019-04-14T03:51:52.478Z,0.00
2019-04-14T03:52:37.595Z,0.00
2019-04-14T03:54:27.364Z,0.00
2019-04-14T03:55:25.109Z,0.00
2019-04-14T03:56:13.795Z,0.00
2019-04-14T03:57:10.386Z,0.00
2019-04-14T03:58:11.463Z,0.00
2019-04-14T03:59:10.534Z,0.00
2019-04-14T04:00:09.603Z,0.00
2019-04-14T04:01:10.453Z,4.00
2019-04-14T04:02:09.678Z,4.00
2019-04-14T04:03:10.538Z,0.00
2019-04-14T04:04:09.670Z,0.00
2019-04-14T04:05:09.283Z,4.00
2019-04-14T04:06:09.696Z,4.00
2019-04-14T04:07:10.227Z,4.00
2019-04-14T04:08:09.381Z,8.00
2019-04-14T04:09:10.345Z,8.00
2019-04-14T04:10:09.416Z,4.00
2019-04-14T04:11:10.459Z,8.00
2019-04-14T04:12:09.621Z,4.00
2019-04-14T04:13:10.453Z,8.00
2019-04-14T04:14:09.693Z,8.00
2019-04-14T04:15:10.393Z,12.00
2019-04-14T04:16:09.350Z,12.00
2019-04-14T04:17:10.150Z,12.00
2019-04-14T04:18:09.195Z,12.00
2019-04-14T04:19:13.504Z,12.00
2019-04-14T04:20:11.013Z,12.00
2019-04-14T04:21:09.530Z,16.00
2019-04-14T04:22:09.157Z,16.00
2019-04-14T04:23:09.563Z,20.00
2019-04-14T04:24:09.078Z,24.00
2019-04-14T04:25:09.415Z,20.00
2019-04-14T04:26:09.033Z,24.00
2019-04-14T04:27:09.040Z,24.00
2019-04-14T04:28:10.103Z,28.00
2019-04-14T04:29:09.195Z,32.00
2019-04-14T04:30:10.116Z,32.00
2019-04-14T04:31:08.984Z,36.00
2019-04-14T04:32:09.971Z,40.00
2019-04-14T04:33:08.962Z,44.00
2019-04-14T04:34:09.826Z,48.00
2019-04-14T04:35:08.950Z,48.00
2019-04-14T04:36:09.520Z,52.00
2019-04-14T04:37:08.934Z,60.00
2019-04-14T04:38:09.541Z,60.00
2019-04-14T04:39:08.910Z,60.00
2019-04-14T04:40:09.375Z,56.00
2019-04-14T04:41:10.026Z,68.00
2019-04-14T04:42:09.193Z,56.00
2019-04-14T04:43:10.079Z,56.00
2019-04-14T04:44:09.411Z,56.00
2019-04-14T04:45:08.845Z,68.00
2019-04-14T04:46:09.138Z,68.00
2019-04-14T04:47:09.892Z,68.00
2019-04-14T04:48:08.975Z,64.00
2019-04-14T04:49:15.144Z,72.00
2019-04-14T04:50:10.755Z,72.00
2019-04-14T04:51:09.300Z,80.00
2019-04-14T04:52:11.446Z,80.00
2019-04-14T04:53:09.096Z,76.00
2019-04-14T04:54:08.744Z,80.00
2019-04-14T04:55:08.913Z,84.00
2019-04-14T04:56:08.720Z,92.00
2019-04-14T04:57:08.940Z,88.00
2019-04-14T04:58:10.003Z,100.00
2019-04-14T04:59:09.701Z,92.00
2019-04-14T05:00:09.250Z,100.00
2019-04-14T05:01:09.865Z,100.00
2019-04-14T05:02:09.050Z,104.00
2019-04-14T05:03:08.642Z,96.00
2019-04-14T05:04:09.055Z,104.00
2019-04-14T05:05:09.809Z,100.00
2019-04-14T05:06:09.163Z,108.00
2019-04-14T05:07:09.753Z,88.00
2019-04-14T05:08:08.740Z,88.00
2019-04-14T05:09:09.853Z,92.00
2019-04-14T05:10:08.895Z,92.00
2019-04-14T05:11:09.659Z,104.00
2019-04-14T05:12:08.996Z,104.00
2019-04-14T05:13:09.414Z,112.00
2019-04-14T05:14:08.784Z,112.00
2019-04-14T05:15:09.432Z,100.00
2019-04-14T05:16:08.567Z,96.00
2019-04-14T05:17:08.477Z,108.00
2019-04-14T05:18:09.144Z,108.00
2019-04-14T05:19:17.205Z,112.00
2019-04-14T05:20:09.622Z,104.00
2019-04-14T05:21:08.435Z,108.00
2019-04-14T05:22:09.255Z,100.00
2019-04-14T05:23:08.427Z,100.00
2019-04-14T05:24:09.271Z,116.00
2019-04-14T05:25:08.393Z,100.00
2019-04-14T05:26:09.186Z,112.00
2019-04-14T05:27:08.371Z,124.00
2019-04-14T05:28:09.105Z,160.00
2019-04-14T05:29:08.371Z,172.00
2019-04-14T05:30:09.002Z,196.00
2019-04-14T05:31:09.663Z,236.00
2019-04-14T05:32:08.789Z,256.00
2019-04-14T05:33:09.515Z,248.00
2019-04-14T05:34:08.641Z,280.00
2019-04-14T05:35:09.510Z,296.00
2019-04-14T05:36:08.542Z,320.00
2019-04-14T05:37:09.261Z,356.00
2019-04-14T05:38:08.502Z,380.00
2019-04-14T05:39:08.932Z,364.00
2019-04-14T05:40:08.263Z,424.00
2019-04-14T05:41:09.109Z,428.00
2019-04-14T05:42:14.044Z,424.00
2019-04-14T05:43:09.224Z,388.00
2019-04-14T05:44:08.247Z,424.00
2019-04-14T05:45:08.763Z,444.00
2019-04-14T05:46:08.161Z,416.00
2019-04-14T05:47:08.697Z,408.00
2019-04-14T05:48:08.131Z,372.00
2019-04-14T05:49:08.581Z,344.00
2019-04-14T05:50:09.376Z,408.00
2019-04-14T05:51:08.533Z,364.00
2019-04-14T05:52:08.116Z,352.00
2019-04-14T05:53:08.638Z,372.00
2019-04-14T05:54:08.108Z,328.00
2019-04-14T05:55:08.781Z,404.00
2019-04-14T05:56:08.061Z,440.00
2019-04-14T05:57:08.792Z,420.00
2019-04-14T05:58:08.082Z,476.00
2019-04-14T05:59:08.875Z,452.00
2019-04-14T06:00:08.225Z,416.00
2019-04-14T06:01:08.975Z,484.00
2019-04-14T06:02:07.992Z,496.00
2019-04-14T06:03:08.143Z,408.00
2019-04-14T06:04:09.254Z,448.00
2019-04-14T06:05:09.221Z,468.00
2019-04-14T06:06:07.928Z,520.00
2019-04-14T06:07:08.786Z,432.00
2019-04-14T06:08:07.924Z,440.00
2019-04-14T06:09:07.932Z,428.00
2019-04-14T06:10:07.910Z,492.00
2019-04-14T06:11:07.887Z,432.00
2019-04-14T06:12:07.910Z,400.00
2019-04-14T06:13:07.860Z,440.00
2019-04-14T06:14:07.884Z,468.00
2019-04-14T06:15:07.846Z,500.00
2019-04-14T06:16:07.851Z,624.00
2019-04-14T06:17:07.815Z,568.00
2019-04-14T06:18:07.844Z,492.00
2019-04-14T06:19:07.840Z,520.00
2019-04-14T06:20:08.396Z,472.00
2019-04-14T06:21:07.790Z,484.00
2019-04-14T06:22:07.757Z,436.00
2019-04-14T06:23:07.748Z,484.00
2019-04-14T06:24:07.770Z,512.00
2019-04-14T06:25:07.763Z,444.00
2019-04-14T06:26:07.732Z,424.00
2019-04-14T06:27:07.731Z,396.00
2019-04-14T06:28:07.688Z,416.00
2019-04-14T06:29:07.704Z,384.00
2019-04-14T06:30:07.706Z,420.00
2019-04-14T06:31:08.949Z,420.00
2019-04-14T06:32:07.673Z,376.00
2019-04-14T06:33:07.647Z,400.00
2019-04-14T06:34:07.625Z,400.00
2019-04-14T06:35:07.636Z,440.00
2019-04-14T06:36:07.613Z,396.00
2019-04-14T06:37:07.611Z,420.00
2019-04-14T06:38:07.591Z,444.00
2019-04-14T06:39:07.572Z,500.00
2019-04-14T06:40:07.603Z,440.00
2019-04-14T06:41:07.565Z,420.00
2019-04-14T06:42:07.557Z,476.00
2019-04-14T06:43:07.548Z,448.00
2019-04-14T06:44:07.538Z,424.00
2019-04-14T06:45:07.526Z,408.00
2019-04-14T06:46:07.503Z,380.00
2019-04-14T06:47:07.518Z,352.00
2019-04-14T06:48:07.485Z,352.00
2019-04-14T06:49:07.467Z,396.00
2019-04-14T06:50:07.466Z,404.00
2019-04-14T06:51:07.437Z,388.00
2019-04-14T06:52:07.421Z,388.00
2019-04-14T06:53:07.423Z,380.00
2019-04-14T06:54:07.405Z,396.00
2019-04-14T06:55:07.427Z,356.00
2019-04-14T06:56:07.383Z,356.00
2019-04-14T06:57:07.384Z,340.00
2019-04-14T06:58:07.357Z,296.00
2019-04-14T06:59:07.367Z,284.00
2019-04-14T07:00:07.362Z,264.00
2019-04-14T07:01:07.361Z,284.00
2019-04-14T07:02:08.658Z,276.00
2019-04-14T07:03:07.323Z,292.00
2019-04-14T07:04:07.291Z,304.00
2019-04-14T07:05:07.295Z,308.00
2019-04-14T07:06:07.327Z,344.00
2019-04-14T07:07:07.321Z,352.00
2019-04-14T07:08:07.260Z,376.00
2019-04-14T07:09:07.235Z,392.00
2019-04-14T07:10:07.264Z,428.00
2019-04-14T07:11:07.209Z,428.00
2019-04-14T07:12:07.300Z,432.00
2019-04-14T07:13:07.227Z,468.00
2019-04-14T07:14:07.184Z,460.00
2019-04-14T07:15:07.171Z,480.00
2019-04-14T07:16:07.176Z,516.00
2019-04-14T07:17:07.146Z,548.00
2019-04-14T07:18:07.171Z,600.00
2019-04-14T07:19:07.130Z,608.00
2019-04-14T07:20:07.121Z,584.00
2019-04-14T07:21:07.135Z,540.00
2019-04-14T07:22:07.100Z,572.00
2019-04-14T07:23:07.090Z,576.00
2019-04-14T07:24:07.097Z,588.00
2019-04-14T07:25:07.067Z,644.00
2019-04-14T07:26:07.064Z,720.00
2019-04-14T07:27:07.094Z,752.00
2019-04-14T07:28:07.031Z,712.00
2019-04-14T07:29:07.016Z,656.00
2019-04-14T07:30:07.019Z,656.00
2019-04-14T07:31:07.025Z,620.00
2019-04-14T07:32:06.989Z,644.00
2019-04-14T07:33:06.993Z,632.00
2019-04-14T07:34:06.962Z,632.00
2019-04-14T07:35:06.950Z,692.00
2019-04-14T07:36:06.982Z,772.00
2019-04-14T07:37:06.932Z,776.00
2019-04-14T07:38:06.923Z,796.00
2019-04-14T07:39:06.916Z,808.00
2019-04-14T07:40:06.940Z,828.00
2019-04-14T07:41:06.951Z,824.00
2019-04-14T07:42:06.894Z,800.00
2019-04-14T07:43:06.864Z,876.00
2019-04-14T07:44:06.871Z,868.00
2019-04-14T07:45:06.859Z,880.00
2019-04-14T07:46:06.866Z,836.00
2019-04-14T07:47:06.844Z,816.00
2019-04-14T07:48:06.822Z,848.00
2019-04-14T07:49:06.802Z,900.00
2019-04-14T07:50:14.440Z,980.00
2019-04-14T07:51:07.783Z,1044.00
2019-04-14T07:52:06.783Z,1064.00
2019-04-14T07:53:06.800Z,1056.00
2019-04-14T07:54:06.756Z,1036.00
2019-04-14T07:55:06.770Z,1016.00
2019-04-14T07:56:06.716Z,1072.00
2019-04-14T07:57:06.741Z,1028.00
2019-04-14T07:58:06.691Z,1004.00
2019-04-14T07:59:06.698Z,1044.00
2019-04-14T08:00:06.680Z,1060.00
2019-04-14T08:01:06.669Z,1120.00
2019-04-14T08:02:06.677Z,1020.00
2019-04-14T08:03:06.655Z,868.00
2019-04-14T08:04:06.635Z,872.00
2019-04-14T08:05:06.631Z,692.00
2019-04-14T08:06:06.617Z,776.00
2019-04-14T08:07:06.647Z,792.00
2019-04-14T08:08:06.609Z,652.00
2019-04-14T08:09:06.598Z,672.00
2019-04-14T08:10:06.566Z,712.00
2019-04-14T08:11:06.571Z,688.00
2019-04-14T08:12:06.589Z,740.00
2019-04-14T08:13:06.543Z,844.00
2019-04-14T08:14:06.534Z,892.00
2019-04-14T08:15:06.517Z,788.00
2019-04-14T08:16:06.502Z,764.00
2019-04-14T08:17:06.505Z,688.00
2019-04-14T08:18:06.488Z,732.00
2019-04-14T08:19:06.484Z,668.00
2019-04-14T08:20:06.472Z,528.00
2019-04-14T08:21:06.453Z,524.00
2019-04-14T08:22:06.496Z,520.00
2019-04-14T08:23:06.441Z,604.00
2019-04-14T08:24:06.421Z,532.00
2019-04-14T08:25:06.401Z,648.00
2019-04-14T08:26:06.390Z,516.00
2019-04-14T08:27:06.394Z,484.00
2019-04-14T08:28:06.384Z,528.00
2019-04-14T08:29:06.371Z,552.00
2019-04-14T08:30:06.381Z,612.00
2019-04-14T08:31:06.350Z,540.00
2019-04-14T08:32:06.372Z,520.00
2019-04-14T08:33:06.315Z,556.00
2019-04-14T08:34:06.321Z,628.00
2019-04-14T08:35:06.315Z,664.00
2019-04-14T08:36:06.306Z,668.00
2019-04-14T08:37:06.288Z,764.00
2019-04-14T08:38:06.366Z,724.00
2019-04-14T08:39:06.263Z,652.00
2019-04-14T08:40:06.241Z,756.00
2019-04-14T08:41:06.238Z,704.00
2019-04-14T08:42:06.220Z,704.00
2019-04-14T08:43:06.223Z,732.00
2019-04-14T08:44:06.219Z,656.00
2019-04-14T08:45:06.180Z,764.00
2019-04-14T08:46:06.180Z,760.00
2019-04-14T08:47:06.184Z,788.00
2019-04-14T08:48:06.169Z,824.00
2019-04-14T08:49:06.130Z,808.00
2019-04-14T08:50:06.143Z,840.00
2019-04-14T08:51:06.128Z,896.00
2019-04-14T08:52:06.116Z,844.00
2019-04-14T08:53:06.155Z,748.00
2019-04-14T08:54:06.078Z,708.00
2019-04-14T08:55:06.069Z,720.00
2019-04-14T08:56:06.066Z,672.00
2019-04-14T08:57:06.071Z,604.00
2019-04-14T08:58:06.072Z,596.00
2019-04-14T08:59:06.042Z,692.00
2019-04-14T09:00:06.084Z,692.00
2019-04-14T09:01:06.024Z,792.00
2019-04-14T09:02:06.001Z,968.00
2019-04-14T09:03:06.017Z,1012.00
2019-04-14T09:04:05.994Z,1056.00
2019-04-14T09:05:05.969Z,1088.00
2019-04-14T09:06:05.946Z,1044.00
2019-04-14T09:07:05.932Z,892.00
2019-04-14T09:08:05.940Z,884.00
2019-04-14T09:09:07.387Z,1012.00
2019-04-14T09:10:05.917Z,944.00
2019-04-14T09:11:05.901Z,924.00
2019-04-14T09:12:15.326Z,1124.00
2019-04-14T09:13:06.902Z,1096.00
2019-04-14T09:14:05.859Z,984.00
2019-04-14T09:15:05.859Z,892.00
2019-04-14T09:16:05.867Z,836.00
2019-04-14T09:17:05.819Z,888.00
2019-04-14T09:18:05.827Z,1092.00
2019-04-14T09:19:07.982Z,1156.00
2019-04-14T09:20:05.801Z,1224.00
2019-04-14T09:21:05.800Z,1212.00
2019-04-14T09:22:05.768Z,1148.00
2019-04-14T09:23:05.770Z,1092.00
2019-04-14T09:24:05.764Z,1036.00
2019-04-14T09:25:05.745Z,1012.00
2019-04-14T09:26:05.747Z,1024.00
2019-04-14T09:27:05.715Z,988.00
2019-04-14T09:28:05.699Z,988.00
2019-04-14T09:29:05.704Z,964.00
2019-04-14T09:30:05.681Z,928.00
2019-04-14T09:31:05.676Z,892.00
2019-04-14T09:32:05.662Z,824.00
2019-04-14T09:33:05.655Z,828.00
2019-04-14T09:34:05.697Z,908.00
2019-04-14T09:35:05.695Z,880.00
2019-04-14T09:36:05.683Z,784.00
2019-04-14T09:37:05.614Z,824.00
2019-04-14T09:38:05.601Z,856.00
2019-04-14T09:39:05.622Z,840.00
2019-04-14T09:40:05.571Z,852.00
2019-04-14T09:41:05.575Z,868.00
2019-04-14T09:42:05.556Z,884.00
2019-04-14T09:43:05.555Z,864.00
2019-04-14T09:44:05.552Z,876.00
2019-04-14T09:45:05.521Z,860.00
2019-04-14T09:46:05.514Z,804.00
2019-04-14T09:47:05.497Z,800.00
2019-04-14T09:48:05.487Z,800.00
2019-04-14T09:49:05.498Z,824.00
2019-04-14T09:50:05.471Z,876.00
2019-04-14T09:51:05.478Z,868.00
2019-04-14T09:52:05.441Z,916.00
2019-04-14T09:53:05.436Z,936.00
2019-04-14T09:54:05.440Z,952.00
2019-04-14T09:55:05.427Z,948.00
2019-04-14T09:56:05.427Z,888.00
2019-04-14T09:57:05.389Z,852.00
2019-04-14T09:58:05.379Z,792.00
2019-04-14T09:59:05.397Z,760.00
2019-04-14T10:00:05.361Z,800.00
2019-04-14T10:01:05.357Z,784.00
2019-04-14T10:02:05.334Z,792.00
2019-04-14T10:03:05.326Z,844.00
2019-04-14T10:04:05.347Z,816.00
2019-04-14T10:05:05.300Z,876.00
2019-04-14T10:06:05.311Z,856.00
2019-04-14T10:07:05.271Z,916.00
2019-04-14T10:08:05.261Z,976.00
2019-04-14T10:09:05.294Z,968.00
2019-04-14T10:10:05.248Z,908.00
2019-04-14T10:11:05.236Z,984.00
2019-04-14T10:12:05.217Z,1068.00
2019-04-14T10:13:05.199Z,1052.00
2019-04-14T10:14:05.200Z,1060.00
2019-04-14T10:15:05.216Z,1020.00
2019-04-14T10:16:05.185Z,944.00
2019-04-14T10:17:05.163Z,884.00
2019-04-14T10:18:05.148Z,892.00
2019-04-14T10:19:05.140Z,916.00
2019-04-14T10:20:05.147Z,956.00
2019-04-14T10:21:16.921Z,900.00
2019-04-14T10:22:06.113Z,744.00
2019-04-14T10:23:05.096Z,836.00
2019-04-14T10:24:05.083Z,832.00
2019-04-14T10:25:05.129Z,888.00
2019-04-14T10:26:05.065Z,840.00
2019-04-14T10:27:05.063Z,896.00
2019-04-14T10:28:05.052Z,852.00
2019-04-14T10:29:05.038Z,784.00
2019-04-14T10:30:05.049Z,848.00
2019-04-14T10:31:05.005Z,928.00
2019-04-14T10:32:05.019Z,928.00
2019-04-14T10:33:04.988Z,932.00
2019-04-14T10:34:04.992Z,904.00
2019-04-14T10:35:04.998Z,852.00
2019-04-14T10:36:04.945Z,804.00
2019-04-14T10:37:04.948Z,880.00
2019-04-14T10:38:05.003Z,884.00
2019-04-14T10:39:04.921Z,948.00
2019-04-14T10:40:06.232Z,904.00
2019-04-14T10:41:04.915Z,860.00
2019-04-14T10:42:04.883Z,828.00
2019-04-14T10:43:04.872Z,840.00
2019-04-14T10:44:04.869Z,808.00
2019-04-14T10:45:04.879Z,852.00
2019-04-14T10:46:04.843Z,892.00
2019-04-14T10:47:04.824Z,956.00
2019-04-14T10:48:04.821Z,964.00
2019-04-14T10:49:04.803Z,912.00
2019-04-14T10:50:04.816Z,888.00
2019-04-14T10:51:04.850Z,872.00
2019-04-14T10:52:04.791Z,956.00
2019-04-14T10:53:04.762Z,944.00
2019-04-14T10:54:04.755Z,920.00
2019-04-14T10:55:04.765Z,1016.00
2019-04-14T10:56:04.744Z,892.00
2019-04-14T10:57:04.715Z,848.00
2019-04-14T10:58:04.695Z,900.00
2019-04-14T10:59:04.697Z,868.00
2019-04-14T11:00:04.704Z,852.00
2019-04-14T11:01:04.726Z,920.00
2019-04-14T11:02:04.673Z,900.00
2019-04-14T11:03:04.658Z,820.00
2019-04-14T11:04:04.653Z,780.00
2019-04-14T11:05:04.632Z,848.00
2019-04-14T11:06:04.659Z,812.00
2019-04-14T11:07:04.608Z,832.00
2019-04-14T11:08:04.620Z,936.00
2019-04-14T11:09:04.592Z,924.00
2019-04-14T11:10:04.589Z,928.00
2019-04-14T11:11:04.580Z,976.00
2019-04-14T11:12:04.570Z,944.00
2019-04-14T11:13:04.552Z,884.00
2019-04-14T11:14:04.546Z,928.00
2019-04-14T11:15:04.521Z,940.00
2019-04-14T11:16:04.555Z,1228.00
2019-04-14T11:17:04.489Z,1052.00
2019-04-14T11:18:04.487Z,1448.00
2019-04-14T11:19:04.503Z,1396.00
2019-04-14T11:20:04.467Z,1580.00
2019-04-14T11:21:04.478Z,1596.00
2019-04-14T11:22:04.430Z,1408.00
2019-04-14T11:23:04.444Z,1732.00
2019-04-14T11:24:04.414Z,1580.00
2019-04-14T11:25:04.457Z,1740.00
2019-04-14T11:26:04.413Z,2084.00
2019-04-14T11:27:04.400Z,1944.00
2019-04-14T11:28:04.373Z,1844.00
2019-04-14T11:29:04.347Z,1844.00
2019-04-14T11:30:04.354Z,1716.00
2019-04-14T11:31:04.360Z,1904.00
2019-04-14T11:32:04.333Z,2188.00
2019-04-14T11:33:04.310Z,1808.00
2019-04-14T11:34:04.324Z,1764.00
2019-04-14T11:35:04.280Z,1804.00
2019-04-14T11:36:04.308Z,1992.00
2019-04-14T11:37:04.259Z,2028.00
2019-04-14T11:38:04.296Z,1856.00
2019-04-14T11:39:04.250Z,1660.00
2019-04-14T11:40:04.256Z,2184.00
2019-04-14T11:41:04.216Z,1936.00
2019-04-14T11:42:04.263Z,1832.00
2019-04-14T11:43:04.213Z,1616.00
2019-04-14T11:44:04.212Z,1824.00
2019-04-14T11:45:04.232Z,1436.00
2019-04-14T11:46:04.325Z,1200.00
2019-04-14T11:47:04.185Z,1676.00
2019-04-14T11:48:04.141Z,1956.00
2019-04-14T11:49:04.159Z,1956.00
2019-04-14T11:50:04.180Z,2040.00
2019-04-14T11:51:04.117Z,1868.00
2019-04-14T11:52:04.131Z,1996.00
2019-04-14T11:53:04.094Z,2144.00
2019-04-14T11:54:04.099Z,1808.00
2019-04-14T11:55:04.063Z,1956.00
2019-04-14T11:56:04.086Z,2060.00
2019-04-14T11:57:04.077Z,2080.00
2019-04-14T11:58:04.031Z,2352.00
2019-04-14T11:59:04.045Z,1900.00
2019-04-14T12:00:04.028Z,1180.00
2019-04-14T12:01:03.993Z,1128.00
2019-04-14T12:02:04.006Z,1764.00
2019-04-14T12:03:04.030Z,1468.00
2019-04-14T12:04:03.980Z,1360.00
2019-04-14T12:05:03.950Z,1708.00
2019-04-14T12:06:03.957Z,1636.00
2019-04-14T12:07:04.066Z,1496.00
2019-04-14T12:08:03.915Z,1648.00
2019-04-14T12:09:03.913Z,1604.00
2019-04-14T12:10:03.909Z,1476.00
2019-04-14T12:11:03.892Z,1632.00
2019-04-14T12:12:03.890Z,1864.00
2019-04-14T12:13:03.872Z,2240.00
2019-04-14T12:14:03.853Z,2560.00
2019-04-14T12:15:03.865Z,2492.00
2019-04-14T12:16:03.822Z,2416.00
2019-04-14T12:17:03.856Z,2288.00
2019-04-14T12:18:03.807Z,2336.00
2019-04-14T12:19:03.791Z,2460.00
2019-04-14T12:20:03.780Z,2580.00
2019-04-14T12:21:03.763Z,2608.00
2019-04-14T12:22:08.586Z,2428.00
2019-04-14T12:23:04.758Z,2644.00
2019-04-14T12:24:03.752Z,2668.00
2019-04-14T12:25:03.777Z,2720.00
2019-04-14T12:26:05.481Z,2632.00
2019-04-14T12:27:03.724Z,2580.00
2019-04-14T12:28:04.755Z,2484.00
2019-04-14T12:29:05.177Z,2248.00
2019-04-14T12:30:03.669Z,2452.00
2019-04-14T12:31:04.058Z,2472.00
2019-04-14T12:32:03.967Z,2552.00
2019-04-14T12:33:03.655Z,2560.00
2019-04-14T12:34:03.646Z,2468.00
2019-04-14T12:35:03.621Z,2400.00
2019-04-14T12:36:03.641Z,2120.00
2019-04-14T12:37:03.626Z,1968.00
2019-04-14T12:38:03.675Z,2024.00
2019-04-14T12:39:03.587Z,2268.00
2019-04-14T12:40:04.814Z,2452.00
2019-04-14T12:41:04.447Z,2528.00
2019-04-14T12:42:03.571Z,2428.00
2019-04-14T12:43:03.527Z,2468.00
2019-04-14T12:44:03.513Z,2420.00
2019-04-14T12:45:03.509Z,2520.00
2019-04-14T12:46:06.060Z,2464.00
2019-04-14T12:47:03.487Z,2616.00
2019-04-14T12:48:03.493Z,2580.00
2019-04-14T12:49:03.450Z,2548.00
2019-04-14T12:50:03.453Z,2476.00
2019-04-14T12:51:03.440Z,2316.00
2019-04-14T12:52:03.470Z,2264.00
2019-04-14T12:53:03.448Z,2248.00
2019-04-14T12:54:03.427Z,2216.00
2019-04-14T12:55:03.401Z,2196.00
2019-04-14T12:56:03.406Z,2200.00
2019-04-14T12:57:03.361Z,2216.00
2019-04-14T12:58:03.386Z,2172.00
2019-04-14T12:59:03.392Z,1972.00
2019-04-14T13:00:03.349Z,2020.00
2019-04-14T13:01:03.326Z,2136.00
2019-04-14T13:02:03.309Z,2208.00
2019-04-14T13:03:03.312Z,2252.00
2019-04-14T13:04:03.291Z,2320.00
2019-04-14T13:05:03.284Z,2256.00